This is the latest recevied weather packets stored in our database for station/object KJ6LNH-1. If no packets are shown the sender has not sent any weather packets the latest 10 day(s).
| Time | Temp. | Humidity | Pressure | Rain* | Wind** | Luminosity | Snow |
|---|---|---|---|---|---|---|---|
| 1778090108 | 22.22° C | 55% | 1019.2 hPa | 0 mm | - | - | - |
| 1778089807 | 21.11° C | 58% | 1019.2 hPa | 0 mm | - | - | - |
| 1778089509 | 20.56° C | 59% | 1019.2 hPa | 0 mm | - | - | - |
| 1778089208 | 21.11° C | 57% | 1019.3 hPa | 0 mm | - | - | - |
| 1778088908 | 20.56° C | 61% | 1019.3 hPa | 0 mm | - | - | - |
| 1778088607 | 20° C | 60% | 1019.3 hPa | 0 mm | - | - | - |
| 1778088307 | 18.89° C | 63% | 1019.3 hPa | 0 mm | - | - | - |
| 1778087708 | 19.44° C | 63% | 1019.3 hPa | 0 mm | - | - | - |
| 1778087407 | 19.44° C | 63% | 1019.3 hPa | 0 mm | - | - | - |
| 1778086807 | 17.22° C | 70% | 1019.3 hPa | - | - | - | - |
| 1778086507 | 17.22° C | 70% | 1019.3 hPa | 0 mm | - | - | - |
| 1778086206 | 17.22° C | 70% | 1019.3 hPa | 0 mm | - | - | - |
| 1778085907 | 16.11° C | 74% | 1019.3 hPa | 0 mm | - | - | - |
| 1778085607 | 15° C | 78% | 1019.3 hPa | 0 mm | - | - | - |
| 1778085307 | 15° C | 78% | 1019.3 hPa | 0 mm | - | - | - |
| 1778085007 | 15° C | 78% | 1019.3 hPa | 0 mm | - | - | - |
| 1778084707 | 15° C | 78% | 1019.3 hPa | 0 mm | - | - | - |
| 1778084408 | 15° C | 78% | 1019.3 hPa | 0 mm | - | - | - |
| 1778084106 | 15° C | 78% | 1019.3 hPa | 0 mm | - | - | - |
| 1778083807 | 15° C | 78% | 1019.3 hPa | 0 mm | - | - | - |
| 1778083208 | 15° C | 78% | 1019.3 hPa | 0 mm | - | - | - |
| 1778082608 | 13.89° C | 80% | 1019.4 hPa | 0 mm | - | - | - |
| 1778082308 | 13.89° C | 81% | 1019.4 hPa | 0 mm | - | - | - |
| 1778082008 | 13.33° C | 83% | 1019.4 hPa | 0 mm | - | - | - |
| 1778081708 | 13.33° C | 83% | 1019.4 hPa | 0 mm | - | - | - |
* Rain latest hour (hover to see other rain measurements)
** Current wind speed in m/s (hover to see current wind gust speed)